sensor_id;sensor_type;location;lat;lon;timestamp;pressure;altitude;pressure_sealevel;temperature;humidity
56270;BME280;42176;43.240;27.880;2024-02-21T00:01:58;100986.41;;;3.19;100.00
56270;BME280;42176;43.240;27.880;2024-02-21T00:03:58;100987.41;;;3.26;100.00
56270;BME280;42176;43.240;27.880;2024-02-21T00:05:59;100983.19;;;3.34;100.00
56270;BME280;42176;43.240;27.880;2024-02-21T00:07:59;100983.38;;;3.43;100.00
56270;BME280;42176;43.240;27.880;2024-02-21T00:10:00;100974.78;;;3.93;100.00
56270;BME280;42176;43.240;27.880;2024-02-21T00:12:01;100970.88;;;3.74;100.00
56270;BME280;42176;43.240;27.880;2024-02-21T00:14:01;100964.47;;;3.15;100.00
56270;BME280;42176;43.240;27.880;2024-02-21T00:16:02;100964.06;;;2.23;100.00
56270;BME280;42176;43.240;27.880;2024-02-21T00:18:03;100954.31;;;2.53;100.00
56270;BME280;42176;43.240;27.880;2024-02-21T00:20:04;100965.25;;;2.73;100.00
56270;BME280;42176;43.240;27.880;2024-02-21T00:22:05;100963.16;;;2.95;100.00
56270;BME280;42176;43.240;27.880;2024-02-21T00:24:06;100964.84;;;3.34;100.00
56270;BME280;42176;43.240;27.880;2024-02-21T00:26:06;100974.25;;;3.67;100.00
56270;BME280;42176;43.240;27.880;2024-02-21T00:28:08;100966.38;;;2.84;100.00
56270;BME280;42176;43.240;27.880;2024-02-21T00:30:09;100973.59;;;2.56;100.00
56270;BME280;42176;43.240;27.880;2024-02-21T00:32:09;100964.75;;;2.88;100.00
56270;BME280;42176;43.240;27.880;2024-02-21T00:34:10;100978.03;;;3.81;100.00
56270;BME280;42176;43.240;27.880;2024-02-21T00:36:12;100983.78;;;3.20;100.00
56270;BME280;42176;43.240;27.880;2024-02-21T00:38:13;100968.38;;;2.56;100.00
56270;BME280;42176;43.240;27.880;2024-02-21T00:40:13;100969.69;;;2.39;100.00
56270;BME280;42176;43.240;27.880;2024-02-21T00:42:20;100964.06;;;2.58;100.00
56270;BME280;42176;43.240;27.880;2024-02-21T00:44:21;100980.22;;;2.79;100.00
56270;BME280;42176;43.240;27.880;2024-02-21T00:46:22;100980.19;;;3.57;100.00
56270;BME280;42176;43.240;27.880;2024-02-21T00:48:22;100981.25;;;3.24;100.00
56270;BME280;42176;43.240;27.880;2024-02-21T00:50:23;100954.78;;;2.73;100.00
56270;BME280;42176;43.240;27.880;2024-02-21T00:52:23;100961.69;;;1.99;100.00
56270;BME280;42176;43.240;27.880;2024-02-21T00:54:24;100967.25;;;2.47;100.00
56270;BME280;42176;43.240;27.880;2024-02-21T00:56:24;100963.34;;;2.66;100.00
56270;BME280;42176;43.240;27.880;2024-02-21T00:58:25;100969.00;;;2.84;100.00
56270;BME280;42176;43.240;27.880;2024-02-21T01:00:26;100978.41;;;3.56;100.00
56270;BME280;42176;43.240;27.880;2024-02-21T01:02:26;100974.75;;;3.06;100.00
56270;BME280;42176;43.240;27.880;2024-02-21T01:04:27;100969.06;;;2.49;100.00
56270;BME280;42176;43.240;27.880;2024-02-21T01:06:27;100952.59;;;2.53;100.00
56270;BME280;42176;43.240;27.880;2024-02-21T01:08:28;100953.03;;;2.72;100.00
56270;BME280;42176;43.240;27.880;2024-02-21T01:10:29;100963.91;;;3.30;100.00
56270;BME280;42176;43.240;27.880;2024-02-21T01:12:30;100969.38;;;3.41;100.00
56270;BME280;42176;43.240;27.880;2024-02-21T01:14:31;100964.00;;;2.94;100.00
56270;BME280;42176;43.240;27.880;2024-02-21T01:16:31;100960.66;;;3.01;100.00
56270;BME280;42176;43.240;27.880;2024-02-21T01:18:37;100947.78;;;3.12;100.00
56270;BME280;42176;43.240;27.880;2024-02-21T01:20:38;100951.59;;;3.26;100.00
56270;BME280;42176;43.240;27.880;2024-02-21T01:22:39;100955.41;;;3.87;100.00
56270;BME280;42176;43.240;27.880;2024-02-21T01:24:39;100954.63;;;3.46;100.00
56270;BME280;42176;43.240;27.880;2024-02-21T01:26:40;100946.63;;;2.99;100.00
56270;BME280;42176;43.240;27.880;2024-02-21T01:28:41;100941.66;;;2.35;100.00
56270;BME280;42176;43.240;27.880;2024-02-21T01:30:42;100939.00;;;2.70;100.00
56270;BME280;42176;43.240;27.880;2024-02-21T01:32:43;100943.81;;;2.89;100.00
56270;BME280;42176;43.240;27.880;2024-02-21T01:34:43;100955.00;;;3.65;100.00
56270;BME280;42176;43.240;27.880;2024-02-21T01:36:44;100952.81;;;3.42;100.00
56270;BME280;42176;43.240;27.880;2024-02-21T01:38:44;100952.34;;;2.81;100.00
56270;BME280;42176;43.240;27.880;2024-02-21T01:40:45;100939.63;;;2.98;100.00
56270;BME280;42176;43.240;27.880;2024-02-21T01:42:45;100950.44;;;3.13;100.00
56270;BME280;42176;43.240;27.880;2024-02-21T01:44:48;100951.81;;;3.81;100.00
56270;BME280;42176;43.240;27.880;2024-02-21T01:46:48;100954.84;;;3.59;100.00
56270;BME280;42176;43.240;27.880;2024-02-21T01:48:49;100942.13;;;2.92;100.00
56270;BME280;42176;43.240;27.880;2024-02-21T01:50:50;100942.81;;;2.84;100.00
56270;BME280;42176;43.240;27.880;2024-02-21T01:52:51;100948.47;;;3.03;100.00
56270;BME280;42176;43.240;27.880;2024-02-21T01:54:51;100954.34;;;3.77;100.00
56270;BME280;42176;43.240;27.880;2024-02-21T01:56:53;100958.38;;;3.59;100.00
56270;BME280;42176;43.240;27.880;2024-02-21T01:58:53;100948.63;;;3.09;100.00
56270;BME280;42176;43.240;27.880;2024-02-21T02:00:56;100948.56;;;3.06;100.00
56270;BME280;42176;43.240;27.880;2024-02-21T02:02:57;100948.03;;;3.23;100.00
56270;BME280;42176;43.240;27.880;2024-02-21T02:04:58;100956.94;;;3.75;100.00
56270;BME280;42176;43.240;27.880;2024-02-21T02:07:02;100955.13;;;3.73;100.00
56270;BME280;42176;43.240;27.880;2024-02-21T02:09:04;100947.97;;;3.21;100.00
56270;BME280;42176;43.240;27.880;2024-02-21T02:11:04;100941.75;;;2.38;100.00
56270;BME280;42176;43.240;27.880;2024-02-21T02:13:05;100945.41;;;2.83;100.00
56270;BME280;42176;43.240;27.880;2024-02-21T02:15:06;100955.50;;;3.04;100.00
56270;BME280;42176;43.240;27.880;2024-02-21T02:17:07;100953.88;;;3.98;100.00
56270;BME280;42176;43.240;27.880;2024-02-21T02:19:09;100963.28;;;3.42;100.00
56270;BME280;42176;43.240;27.880;2024-02-21T02:21:34;100953.78;;;3.06;100.00
56270;BME280;42176;43.240;27.880;2024-02-21T02:23:38;100954.31;;;3.31;100.00
56270;BME280;42176;43.240;27.880;2024-02-21T02:25:39;100954.63;;;3.46;100.00
56270;BME280;42176;43.240;27.880;2024-02-21T02:27:43;100961.22;;;4.18;100.00
56270;BME280;42176;43.240;27.880;2024-02-21T02:29:45;100962.16;;;3.75;100.00
56270;BME280;42176;43.240;27.880;2024-02-21T02:31:45;100952.34;;;3.20;100.00
56270;BME280;42176;43.240;27.880;2024-02-21T02:33:46;100938.66;;;3.34;100.00
56270;BME280;42176;43.240;27.880;2024-02-21T02:35:48;100945.91;;;3.47;100.00
56270;BME280;42176;43.240;27.880;2024-02-21T02:37:49;100955.00;;;3.65;100.00
56270;BME280;42176;43.240;27.880;2024-02-21T02:39:50;100965.75;;;4.26;100.00
56270;BME280;42176;43.240;27.880;2024-02-21T02:41:50;100951.97;;;3.91;100.00
56270;BME280;42176;43.240;27.880;2024-02-21T02:43:51;100937.19;;;3.48;100.00
56270;BME280;42176;43.240;27.880;2024-02-21T02:45:51;100945.13;;;3.52;100.00
56270;BME280;42176;43.240;27.880;2024-02-21T02:47:53;100942.66;;;3.61;100.00
56270;BME280;42176;43.240;27.880;2024-02-21T02:49:59;100940.19;;;3.69;100.00
56270;BME280;42176;43.240;27.880;2024-02-21T02:52:00;100944.78;;;3.79;100.00
56270;BME280;42176;43.240;27.880;2024-02-21T02:54:02;100939.72;;;3.90;100.00
56270;BME280;42176;43.240;27.880;2024-02-21T02:56:02;100949.69;;;4.09;100.00
56270;BME280;42176;43.240;27.880;2024-02-21T02:58:03;100948.56;;;4.47;100.00
56270;BME280;42176;43.240;27.880;2024-02-21T03:00:05;100950.72;;;4.18;100.00
56270;BME280;42176;43.240;27.880;2024-02-21T03:02:07;100942.63;;;3.58;100.00
56270;BME280;42176;43.240;27.880;2024-02-21T03:04:07;100928.16;;;3.34;100.00
56270;BME280;42176;43.240;27.880;2024-02-21T03:06:08;100944.28;;;3.53;100.00
56270;BME280;42176;43.240;27.880;2024-02-21T03:08:08;100947.13;;;3.65;100.00
56270;BME280;42176;43.240;27.880;2024-02-21T03:10:10;100950.72;;;4.18;100.00
56270;BME280;42176;43.240;27.880;2024-02-21T03:12:11;100949.75;;;3.66;100.00
56270;BME280;42176;43.240;27.880;2024-02-21T03:14:11;100938.66;;;3.34;100.00
56270;BME280;42176;43.240;27.880;2024-02-21T03:16:12;100944.34;;;3.57;100.00
56270;BME280;42176;43.240;27.880;2024-02-21T03:18:13;100948.03;;;3.67;100.00
56270;BME280;42176;43.240;27.880;2024-02-21T03:20:13;100953.56;;;3.81;100.00
56270;BME280;42176;43.240;27.880;2024-02-21T03:22:14;100953.72;;;3.89;100.00
56270;BME280;42176;43.240;27.880;2024-02-21T03:24:15;100947.69;;;3.96;100.00
56270;BME280;42176;43.240;27.880;2024-02-21T03:26:16;100955.84;;;4.11;100.00
56270;BME280;42176;43.240;27.880;2024-02-21T03:28:17;100954.34;;;4.26;100.00
56270;BME280;42176;43.240;27.880;2024-02-21T03:30:18;100946.63;;;4.35;100.00
56270;BME280;42176;43.240;27.880;2024-02-21T03:32:18;100957.63;;;4.66;100.00
56270;BME280;42176;43.240;27.880;2024-02-21T03:34:19;100951.38;;;4.06;100.00
56270;BME280;42176;43.240;27.880;2024-02-21T03:36:19;100942.19;;;3.36;100.00
56270;BME280;42176;43.240;27.880;2024-02-21T03:38:20;100935.72;;;3.18;100.00
56270;BME280;42176;43.240;27.880;2024-02-21T03:40:20;100935.19;;;3.35;100.00
56270;BME280;42176;43.240;27.880;2024-02-21T03:42:21;100946.13;;;3.60;100.00
56270;BME280;42176;43.240;27.880;2024-02-21T03:44:22;100942.97;;;3.76;100.00
56270;BME280;42176;43.240;27.880;2024-02-21T03:46:24;100944.16;;;3.94;100.00
56270;BME280;42176;43.240;27.880;2024-02-21T03:48:25;100949.72;;;4.11;100.00
56270;BME280;42176;43.240;27.880;2024-02-21T03:50:25;100952.53;;;4.77;100.00
56270;BME280;42176;43.240;27.880;2024-02-21T03:52:27;100945.34;;;4.11;100.00
56270;BME280;42176;43.240;27.880;2024-02-21T03:54:28;100932.88;;;3.52;100.00
56270;BME280;42176;43.240;27.880;2024-02-21T03:56:29;100934.69;;;2.70;100.00
56270;BME280;42176;43.240;27.880;2024-02-21T03:58:33;100926.00;;;3.14;100.00
56270;BME280;42176;43.240;27.880;2024-02-21T04:00:33;100930.78;;;3.32;100.00
56270;BME280;42176;43.240;27.880;2024-02-21T04:02:34;100942.56;;;3.55;100.00
56270;BME280;42176;43.240;27.880;2024-02-21T04:04:35;100937.22;;;3.97;100.00
56270;BME280;42176;43.240;27.880;2024-02-21T04:06:49;100960.69;;;3.90;100.00
56270;BME280;42176;43.240;27.880;2024-02-21T04:08:49;100944.03;;;3.40;100.00
56270;BME280;42176;43.240;27.880;2024-02-21T04:10:50;100955.59;;;3.52;100.00
56270;BME280;42176;43.240;27.880;2024-02-21T04:12:50;100949.69;;;3.62;100.00
56270;BME280;42176;43.240;27.880;2024-02-21T04:14:51;100960.31;;;4.16;100.00
56270;BME280;42176;43.240;27.880;2024-02-21T04:16:51;100956.00;;;3.72;100.00
56270;BME280;42176;43.240;27.880;2024-02-21T04:18:52;100950.91;;;3.35;100.00
56270;BME280;42176;43.240;27.880;2024-02-21T04:20:53;100951.34;;;3.57;100.00
56270;BME280;42176;43.240;27.880;2024-02-21T04:22:53;100954.94;;;3.62;100.00
56270;BME280;42176;43.240;27.880;2024-02-21T04:24:54;100959.38;;;4.14;100.00
56270;BME280;42176;43.240;27.880;2024-02-21T04:26:54;100955.00;;;3.66;100.00
56270;BME280;42176;43.240;27.880;2024-02-21T04:28:55;100953.69;;;3.43;100.00
56270;BME280;42176;43.240;27.880;2024-02-21T04:30:55;100965.78;;;3.80;100.00
56270;BME280;42176;43.240;27.880;2024-02-21T04:32:56;100969.88;;;3.68;100.00
56270;BME280;42176;43.240;27.880;2024-02-21T04:34:56;100971.94;;;3.38;100.00
56270;BME280;42176;43.240;27.880;2024-02-21T04:36:57;100968.72;;;3.52;100.00
56270;BME280;42176;43.240;27.880;2024-02-21T04:38:57;100971.66;;;3.69;100.00
56270;BME280;42176;43.240;27.880;2024-02-21T04:40:58;100974.97;;;4.04;100.00
56270;BME280;42176;43.240;27.880;2024-02-21T04:42:59;100977.75;;;4.12;100.00
56270;BME280;42176;43.240;27.880;2024-02-21T04:44:59;100964.94;;;3.37;100.00
56270;BME280;42176;43.240;27.880;2024-02-21T04:47:00;100948.66;;;3.12;100.00
56270;BME280;42176;43.240;27.880;2024-02-21T04:49:01;100961.22;;;3.26;100.00
56270;BME280;42176;43.240;27.880;2024-02-21T04:51:01;100975.16;;;3.25;100.00
56270;BME280;42176;43.240;27.880;2024-02-21T04:53:02;100965.72;;;3.33;100.00
56270;BME280;42176;43.240;27.880;2024-02-21T04:55:03;100979.19;;;3.52;100.00
56270;BME280;42176;43.240;27.880;2024-02-21T04:57:04;100993.16;;;3.95;100.00
56270;BME280;42176;43.240;27.880;2024-02-21T04:59:04;100986.75;;;3.36;100.00
56270;BME280;42176;43.240;27.880;2024-02-21T05:01:07;100979.47;;;2.83;100.00
56270;BME280;42176;43.240;27.880;2024-02-21T05:03:08;100967.03;;;2.74;100.00
56270;BME280;42176;43.240;27.880;2024-02-21T05:05:08;100977.16;;;2.97;100.00
56270;BME280;42176;43.240;27.880;2024-02-21T05:07:09;100986.59;;;3.71;100.00
56270;BME280;42176;43.240;27.880;2024-02-21T05:09:11;100982.72;;;3.12;100.00
56270;BME280;42176;43.240;27.880;2024-02-21T05:11:12;100984.31;;;3.04;100.00
56270;BME280;42176;43.240;27.880;2024-02-21T05:13:12;100990.81;;;3.23;100.00
56270;BME280;42176;43.240;27.880;2024-02-21T05:15:13;100994.69;;;3.39;100.00
56270;BME280;42176;43.240;27.880;2024-02-21T05:17:15;101001.19;;;3.60;100.00
56270;BME280;42176;43.240;27.880;2024-02-21T05:19:15;100998.78;;;3.69;100.00
56270;BME280;42176;43.240;27.880;2024-02-21T05:21:16;101003.28;;;3.76;100.00
56270;BME280;42176;43.240;27.880;2024-02-21T05:23:16;101006.25;;;3.95;100.00
56270;BME280;42176;43.240;27.880;2024-02-21T05:25:17;101006.94;;;3.40;100.00
56270;BME280;42176;43.240;27.880;2024-02-21T05:27:17;100996.22;;;3.31;100.00
56270;BME280;42176;43.240;27.880;2024-02-21T05:29:18;101003.50;;;3.44;100.00
56270;BME280;42176;43.240;27.880;2024-02-21T05:31:19;101003.03;;;3.62;100.00
56270;BME280;42176;43.240;27.880;2024-02-21T05:33:20;101005.09;;;3.79;100.00
56270;BME280;42176;43.240;27.880;2024-02-21T05:35:27;101003.53;;;3.89;100.00
56270;BME280;42176;43.240;27.880;2024-02-21T05:37:29;101009.66;;;4.38;100.00
56270;BME280;42176;43.240;27.880;2024-02-21T05:39:29;101005.28;;;3.90;100.00
56270;BME280;42176;43.240;27.880;2024-02-21T05:41:30;101002.31;;;3.71;100.00
56270;BME280;42176;43.240;27.880;2024-02-21T05:43:31;100985.53;;;3.61;100.00
56270;BME280;42176;43.240;27.880;2024-02-21T05:45:32;101000.84;;;3.86;100.00
56270;BME280;42176;43.240;27.880;2024-02-21T05:47:32;100997.66;;;4.02;100.00
56270;BME280;42176;43.240;27.880;2024-02-21T05:49:33;101015.06;;;4.46;100.00
56270;BME280;42176;43.240;27.880;2024-02-21T05:51:34;100999.09;;;3.85;100.00
56270;BME280;42176;43.240;27.880;2024-02-21T05:53:35;100993.28;;;3.57;100.00
56270;BME280;42176;43.240;27.880;2024-02-21T05:55:36;100998.84;;;3.72;100.00
56270;BME280;42176;43.240;27.880;2024-02-21T05:57:37;101000.72;;;3.79;100.00
56270;BME280;42176;43.240;27.880;2024-02-21T05:59:38;100969.09;;;3.70;100.00
56270;BME280;42176;43.240;27.880;2024-02-21T06:01:40;101007.25;;;4.02;100.00
56270;BME280;42176;43.240;27.880;2024-02-21T06:03:41;101011.66;;;4.01;100.00
56270;BME280;42176;43.240;27.880;2024-02-21T06:05:41;101008.19;;;4.05;100.00
56270;BME280;42176;43.240;27.880;2024-02-21T06:07:42;101017.88;;;4.08;100.00
56270;BME280;42176;43.240;27.880;2024-02-21T06:09:42;101012.59;;;4.06;100.00
56270;BME280;42176;43.240;27.880;2024-02-21T06:11:44;101004.84;;;4.13;100.00
56270;BME280;42176;43.240;27.880;2024-02-21T06:13:46;101017.28;;;4.23;100.00
56270;BME280;42176;43.240;27.880;2024-02-21T06:15:47;101014.75;;;4.80;100.00
56270;BME280;42176;43.240;27.880;2024-02-21T06:17:48;101017.75;;;4.00;100.00
56270;BME280;42176;43.240;27.880;2024-02-21T06:19:48;100980.19;;;3.57;100.00
56270;BME280;42176;43.240;27.880;2024-02-21T06:21:49;101018.44;;;3.91;100.00
56270;BME280;42176;43.240;27.880;2024-02-21T06:23:49;101024.06;;;4.11;100.00
56270;BME280;42176;43.240;27.880;2024-02-21T06:25:50;101003.22;;;4.21;100.00
56270;BME280;42176;43.240;27.880;2024-02-21T06:27:52;101033.25;;;4.87;100.00
56270;BME280;42176;43.240;27.880;2024-02-21T06:29:53;101017.53;;;4.38;100.00
56270;BME280;42176;43.240;27.880;2024-02-21T06:31:53;101015.84;;;3.93;100.00
56270;BME280;42176;43.240;27.880;2024-02-21T06:33:54;101005.91;;;3.76;100.00
56270;BME280;42176;43.240;27.880;2024-02-21T06:35:54;101016.91;;;4.01;100.00
56270;BME280;42176;43.240;27.880;2024-02-21T06:37:55;101011.94;;;4.17;100.00
56270;BME280;42176;43.240;27.880;2024-02-21T06:39:56;101014.84;;;4.34;100.00
56270;BME280;42176;43.240;27.880;2024-02-21T06:41:56;101005.44;;;4.47;100.00
56270;BME280;42176;43.240;27.880;2024-02-21T06:43:57;101002.03;;;4.51;100.00
56270;BME280;42176;43.240;27.880;2024-02-21T06:45:57;100994.34;;;4.65;100.00
56270;BME280;42176;43.240;27.880;2024-02-21T06:47:58;100996.25;;;4.72;100.00
56270;BME280;42176;43.240;27.880;2024-02-21T06:49:58;100986.75;;;4.82;100.00
56270;BME280;42176;43.240;27.880;2024-02-21T06:51:59;100987.16;;;5.10;100.00
56270;BME280;42176;43.240;27.880;2024-02-21T06:53:59;100981.41;;;5.39;100.00
56270;BME280;42176;43.240;27.880;2024-02-21T06:56:00;100979.19;;;5.73;100.00
56270;BME280;42176;43.240;27.880;2024-02-21T06:58:00;100976.09;;;6.11;100.00
56270;BME280;42176;43.240;27.880;2024-02-21T07:00:02;100972.94;;;6.49;100.00
56270;BME280;42176;43.240;27.880;2024-02-21T07:02:03;100971.47;;;6.89;100.00
56270;BME280;42176;43.240;27.880;2024-02-21T07:04:03;100962.88;;;7.25;100.00
56270;BME280;42176;43.240;27.880;2024-02-21T07:06:04;100962.13;;;7.53;100.00
56270;BME280;42176;43.240;27.880;2024-02-21T07:08:05;100963.78;;;7.32;100.00
56270;BME280;42176;43.240;27.880;2024-02-21T07:10:06;100962.28;;;6.34;100.00
56270;BME280;42176;43.240;27.880;2024-02-21T07:12:08;100966.00;;;5.71;100.00
56270;BME280;42176;43.240;27.880;2024-02-21T07:14:08;100972.22;;;5.75;100.00
56270;BME280;42176;43.240;27.880;2024-02-21T07:16:09;100971.94;;;6.35;100.00
56270;BME280;42176;43.240;27.880;2024-02-21T07:18:10;100974.91;;;6.80;100.00
56270;BME280;42176;43.240;27.880;2024-02-21T07:20:10;100963.84;;;7.37;100.00
56270;BME280;42176;43.240;27.880;2024-02-21T07:22:11;100971.94;;;7.94;100.00
56270;BME280;42176;43.240;27.880;2024-02-21T07:24:11;100972.88;;;8.35;100.00
56270;BME280;42176;43.240;27.880;2024-02-21T07:26:13;100969.38;;;8.68;100.00
56270;BME280;42176;43.240;27.880;2024-02-21T07:28:13;100972.00;;;8.93;100.00
56270;BME280;42176;43.240;27.880;2024-02-21T07:30:15;100978.16;;;8.88;100.00
56270;BME280;42176;43.240;27.880;2024-02-21T07:32:16;100979.59;;;7.23;100.00
56270;BME280;42176;43.240;27.880;2024-02-21T07:34:16;100977.09;;;6.21;100.00
56270;BME280;42176;43.240;27.880;2024-02-21T07:36:28;100984.06;;;6.17;100.00
56270;BME280;42176;43.240;27.880;2024-02-21T07:38:29;100970.41;;;6.60;100.00
56270;BME280;42176;43.240;27.880;2024-02-21T07:40:30;100979.41;;;6.93;100.00
56270;BME280;42176;43.240;27.880;2024-02-21T07:42:30;100991.00;;;7.20;100.00
56270;BME280;42176;43.240;27.880;2024-02-21T07:44:34;100978.81;;;7.45;100.00
56270;BME280;42176;43.240;27.880;2024-02-21T07:46:36;100975.47;;;7.90;100.00
56270;BME280;42176;43.240;27.880;2024-02-21T07:48:36;100989.03;;;6.83;100.00
56270;BME280;42176;43.240;27.880;2024-02-21T07:50:37;100986.59;;;6.08;100.00
56270;BME280;42176;43.240;27.880;2024-02-21T07:52:37;100996.25;;;6.07;100.00
56270;BME280;42176;43.240;27.880;2024-02-21T07:54:38;100999.34;;;6.59;100.00
56270;BME280;42176;43.240;27.880;2024-02-21T07:56:38;100997.78;;;6.81;100.00
56270;BME280;42176;43.240;27.880;2024-02-21T07:58:42;101011.50;;;6.38;100.00
56270;BME280;42176;43.240;27.880;2024-02-21T08:00:42;100994.75;;;6.33;100.00
56270;BME280;42176;43.240;27.880;2024-02-21T08:02:43;100992.53;;;6.85;100.00
56270;BME280;42176;43.240;27.880;2024-02-21T08:04:44;100987.59;;;7.47;100.00
56270;BME280;42176;43.240;27.880;2024-02-21T08:06:44;100988.72;;;8.21;100.00
56270;BME280;42176;43.240;27.880;2024-02-21T08:08:45;100989.28;;;7.27;100.00
56270;BME280;42176;43.240;27.880;2024-02-21T08:10:46;100987.22;;;6.79;100.00
56270;BME280;42176;43.240;27.880;2024-02-21T08:12:46;100989.44;;;7.58;100.00
56270;BME280;42176;43.240;27.880;2024-02-21T08:14:47;100987.84;;;8.22;100.00
56270;BME280;42176;43.240;27.880;2024-02-21T08:16:48;100987.88;;;8.65;100.00
56270;BME280;42176;43.240;27.880;2024-02-21T08:18:53;100986.06;;;8.43;100.00
56270;BME280;42176;43.240;27.880;2024-02-21T08:20:53;100987.81;;;8.03;100.00
56270;BME280;42176;43.240;27.880;2024-02-21T08:22:54;100987.00;;;8.65;100.00
56270;BME280;42176;43.240;27.880;2024-02-21T08:24:55;100991.38;;;9.02;100.00
56270;BME280;42176;43.240;27.880;2024-02-21T08:26:55;100993.06;;;9.31;100.00
56270;BME280;42176;43.240;27.880;2024-02-21T08:28:58;100987.84;;;8.96;100.00
56270;BME280;42176;43.240;27.880;2024-02-21T08:31:00;100982.50;;;7.94;100.00
56270;BME280;42176;43.240;27.880;2024-02-21T08:33:01;100977.28;;;8.19;100.00
56270;BME280;42176;43.240;27.880;2024-02-21T08:35:02;100987.88;;;8.81;100.00
56270;BME280;42176;43.240;27.880;2024-02-21T08:37:03;100970.78;;;9.86;100.00
56270;BME280;42176;43.240;27.880;2024-02-21T08:39:04;100981.69;;;8.93;100.00
56270;BME280;42176;43.240;27.880;2024-02-21T08:41:05;100991.31;;;7.93;100.00
56270;BME280;42176;43.240;27.880;2024-02-21T08:43:05;100989.66;;;8.63;100.00
56270;BME280;42176;43.240;27.880;2024-02-21T08:45:06;100986.06;;;9.08;100.00
56270;BME280;42176;43.240;27.880;2024-02-21T08:47:07;100984.16;;;9.50;100.00
56270;BME280;42176;43.240;27.880;2024-02-21T08:49:10;100987.84;;;8.93;100.00
56270;BME280;42176;43.240;27.880;2024-02-21T08:51:10;100973.72;;;8.01;100.00
56270;BME280;42176;43.240;27.880;2024-02-21T08:53:12;100980.84;;;8.49;100.00
56270;BME280;42176;43.240;27.880;2024-02-21T08:55:14;100979.03;;;9.01;100.00
56270;BME280;42176;43.240;27.880;2024-02-21T08:57:15;100967.38;;;9.64;100.00
56270;BME280;42176;43.240;27.880;2024-02-21T08:59:15;100972.88;;;8.91;100.00
56270;BME280;42176;43.240;27.880;2024-02-21T09:01:17;100972.88;;;8.22;100.00
56270;BME280;42176;43.240;27.880;2024-02-21T09:03:18;100980.84;;;8.67;100.00
56270;BME280;42176;43.240;27.880;2024-02-21T09:05:20;100986.06;;;9.05;100.00
56270;BME280;42176;43.240;27.880;2024-02-21T09:07:20;100977.16;;;9.43;100.00
56270;BME280;42176;43.240;27.880;2024-02-21T09:09:21;100967.63;;;8.50;100.00
56270;BME280;42176;43.240;27.880;2024-02-21T09:11:22;100980.81;;;8.24;100.00
56270;BME280;42176;43.240;27.880;2024-02-21T09:13:22;100979.94;;;8.82;100.00
56270;BME280;42176;43.240;27.880;2024-02-21T09:15:25;100973.66;;;9.28;100.00
56270;BME280;42176;43.240;27.880;2024-02-21T09:17:25;100969.19;;;9.44;100.00
56270;BME280;42176;43.240;27.880;2024-02-21T09:19:29;100969.38;;;8.62;100.00
56270;BME280;42176;43.240;27.880;2024-02-21T09:21:30;100975.53;;;8.80;100.00
56270;BME280;42176;43.240;27.880;2024-02-21T09:23:30;100976.31;;;9.32;100.00
56270;BME280;42176;43.240;27.880;2024-02-21T09:25:32;100964.66;;;9.76;100.00
56270;BME280;42176;43.240;27.880;2024-02-21T09:27:32;100969.09;;;9.66;100.00
56270;BME280;42176;43.240;27.880;2024-02-21T09:29:33;100982.59;;;8.75;100.00
56270;BME280;42176;43.240;27.880;2024-02-21T09:31:34;100969.34;;;8.89;100.00
56270;BME280;42176;43.240;27.880;2024-02-21T09:33:34;100977.09;;;9.58;100.00
56270;BME280;42176;43.240;27.880;2024-02-21T09:35:35;100971.44;;;10.17;100.00
56270;BME280;42176;43.240;27.880;2024-02-21T09:37:36;100973.56;;;10.84;100.00
56270;BME280;42176;43.240;27.880;2024-02-21T09:39:36;100971.66;;;9.83;100.00
56270;BME280;42176;43.240;27.880;2024-02-21T09:41:42;100966.50;;;9.62;100.00
56270;BME280;42176;43.240;27.880;2024-02-21T09:43:45;100956.59;;;9.96;100.00
56270;BME280;42176;43.240;27.880;2024-02-21T09:45:47;100966.81;;;10.50;100.00
56270;BME280;42176;43.240;27.880;2024-02-21T09:48:14;100955.72;;;9.96;100.00
56270;BME280;42176;43.240;27.880;2024-02-21T09:50:19;100955.06;;;9.42;100.00
56270;BME280;42176;43.240;27.880;2024-02-21T09:52:21;100960.25;;;9.75;100.00
56270;BME280;42176;43.240;27.880;2024-02-21T09:54:24;100957.28;;;10.21;100.00
56270;BME280;42176;43.240;27.880;2024-02-21T09:56:25;100957.59;;;9.72;100.00
56270;BME280;42176;43.240;27.880;2024-02-21T09:58:26;100964.97;;;8.77;100.00
56270;BME280;42176;43.240;27.880;2024-02-21T10:00:28;100957.91;;;8.73;100.00
56270;BME280;42176;43.240;27.880;2024-02-21T10:02:29;100954.31;;;9.11;100.00
56270;BME280;42176;43.240;27.880;2024-02-21T10:04:29;100948.91;;;9.48;100.00
56270;BME280;42176;43.240;27.880;2024-02-21T10:06:30;100953.47;;;8.90;100.00
56270;BME280;42176;43.240;27.880;2024-02-21T10:08:31;100949.94;;;8.97;100.00
56270;BME280;42176;43.240;27.880;2024-02-21T10:10:44;100945.50;;;9.15;100.00
56270;BME280;42176;43.240;27.880;2024-02-21T10:12:52;100937.47;;;9.38;100.00
56270;BME280;42176;43.240;27.880;2024-02-21T10:15:05;100940.94;;;9.50;100.00
56270;BME280;42176;43.240;27.880;2024-02-21T10:17:05;100937.69;;;8.64;100.00
56270;BME280;42176;43.240;27.880;2024-02-21T10:19:19;100941.19;;;8.67;100.00
56270;BME280;42176;43.240;27.880;2024-02-21T10:21:20;100936.72;;;8.88;100.00
56270;BME280;42176;43.240;27.880;2024-02-21T10:23:20;100929.53;;;9.40;100.00
56270;BME280;42176;43.240;27.880;2024-02-21T10:25:21;100927.94;;;8.86;100.00
56270;BME280;42176;43.240;27.880;2024-02-21T10:27:23;100928.88;;;8.54;100.00